Time;durP1;ratioP1;P1;durP2;ratioP2;P2;SDS_P1;SDS_P2;PMS_P1;PMS_P2;Temp;Humidity;BMP_temperature;BMP_pressure;BME280_temperature;BME280_humidity;BME280_pressure;Samples;Min_cycle;Max_cycle;Signal;HPM_P1;HPM_P2
2022/10/22 06:14:10;;;;;;;;;;;;;;;17.21;87.09;97014.03;4213501;27;10319;-70
2022/10/22 06:16:13;;;;;;;;;;;;;;;17.51;86.01;97013.13;4191345;28;5713;-70
2022/10/22 06:18:17;;;;;;;;;;;;;;;17.72;85.38;97015.28;4189566;28;5726;-70
2022/10/22 06:20:19;;;;;;;;;;;;;;;17.87;84.88;97015.59;4189732;28;5738;-69
2022/10/22 06:22:22;;;;;;;;;;;;;;;18.00;84.23;97023.38;4195315;28;5964;-69
2022/10/22 06:24:25;;;;;;;;;;;;;;;18.12;83.93;97019.88;4184315;28;5823;-69
2022/10/22 06:26:28;;;;;;;;;;;;;;;18.20;83.46;97023.00;4186324;28;5818;-69
2022/10/22 06:28:31;;;;;;;;;;;;;;;18.26;83.30;97029.28;4191708;28;5970;-69
2022/10/22 06:30:37;;;;;;;;;;;;;;;18.32;83.02;97044.41;4195464;28;5898;-69
2022/10/22 06:32:45;;;;;;;;;;;;;;;18.38;82.68;97043.47;4189560;28;5844;-69
2022/10/22 06:34:49;;;;;;;;;;;;;;;18.43;82.69;97043.56;4191801;28;5862;-69
2022/10/22 06:36:52;;;;;;;;;;;;;;;18.47;82.37;97043.91;4187962;28;5809;-69
2022/10/22 06:38:55;;;;;;;;;;;;;;;18.49;82.40;97042.63;4186474;28;5849;-69
2022/10/22 06:41:02;;;;;;;;;;;;;;;18.53;82.02;97051.78;4194224;28;5096;-69
2022/10/22 06:43:05;;;;;;;;;;;;;;;18.57;81.75;97055.63;4181407;28;5749;-69
2022/10/22 06:45:09;;;;;;;;;;;;;;;18.59;81.55;97058.88;4180986;28;5746;-69
2022/10/22 06:47:14;;;;;;;;;;;;;;;18.62;81.66;97052.25;4190621;28;5708;-69
2022/10/22 06:49:16;;;;;;;;;;;;;;;18.64;81.24;97063.56;4187108;28;5789;-69
2022/10/22 06:51:20;;;;;;;;;;;;;;;18.65;81.43;97051.78;4189310;28;5717;-69
2022/10/22 06:53:23;;;;;;;;;;;;;;;18.68;81.25;97051.31;4180924;28;5738;-69
2022/10/22 06:55:26;;;;;;;;;;;;;;;18.71;80.84;97055.41;4182529;28;6527;-69
2022/10/22 06:57:30;;;;;;;;;;;;;;;18.73;80.88;97064.81;4181244;28;5817;-69
2022/10/22 06:59:33;;;;;;;;;;;;;;;18.72;80.90;97063.19;4190033;28;5783;-69
2022/10/22 07:01:37;;;;;;;;;;;;;;;18.76;80.50;97068.88;4185201;28;5701;-69
2022/10/22 07:03:42;;;;;;;;;;;;;;;18.76;80.63;97077.72;4183660;28;5888;-69
2022/10/22 07:05:45;;;;;;;;;;;;;;;18.78;80.12;97077.47;4189392;28;5769;-69
2022/10/22 07:07:48;;;;;;;;;;;;;;;18.81;79.91;97071.66;4189042;28;5869;-68
2022/10/22 07:09:50;;;;;;;;;;;;;;;18.83;80.19;97081.09;4186023;28;5734;-68
2022/10/22 07:11:54;;;;;;;;;;;;;;;18.85;79.66;97084.31;4189900;28;5762;-69
2022/10/22 07:13:58;;;;;;;;;;;;;;;18.88;79.87;97086.53;4188165;28;5877;-68
2022/10/22 07:16:01;;;;;;;;;;;;;;;18.92;79.56;97083.38;4178141;28;5742;-69
2022/10/22 07:18:05;;;;;;;;;;;;;;;18.94;79.55;97082.09;4178274;28;5819;-69
2022/10/22 07:20:11;;;;;;;;;;;;;;;18.98;79.59;97071.69;4177830;28;5845;-69
2022/10/22 07:22:14;;;;;;;;;;;;;;;19.01;79.52;97068.53;4179563;28;5717;-69
2022/10/22 07:24:17;;;;;;;;;;;;;;;19.03;79.26;97069.13;4176603;28;5883;-69
2022/10/22 07:26:24;;;;;;;;;;;;;;;19.02;79.14;97073.66;4178169;28;5725;-69
2022/10/22 07:28:27;;;;;;;;;;;;;;;19.03;78.92;97074.50;4177343;28;5742;-69
2022/10/22 07:30:30;;;;;;;;;;;;;;;19.05;79.21;97077.75;4179492;28;5753;-69
2022/10/22 07:32:33;;;;;;;;;;;;;;;19.05;78.93;97075.88;4178601;28;5105;-68
2022/10/22 07:34:35;;;;;;;;;;;;;;;19.05;78.71;97075.88;4173783;28;5836;-69
2022/10/22 07:36:43;;;;;;;;;;;;;;;19.06;78.60;97079.38;4180721;28;5911;-69
2022/10/22 07:38:47;;;;;;;;;;;;;;;19.05;78.47;97078.56;4171342;28;5727;-69
2022/10/22 07:40:50;;;;;;;;;;;;;;;19.02;78.23;97084.38;4177678;28;5651;-69
2022/10/22 07:42:53;;;;;;;;;;;;;;;18.99;78.41;97079.50;4181263;28;5901;-69
2022/10/22 07:44:56;;;;;;;;;;;;;;;18.98;78.52;97083.22;4177409;28;5800;-69
2022/10/22 07:46:59;;;;;;;;;;;;;;;19.02;78.01;97075.50;4169756;28;5750;-68
2022/10/22 07:49:02;;;;;;;;;;;;;;;19.03;78.00;97077.97;4177049;28;5746;-68
2022/10/22 07:51:05;;;;;;;;;;;;;;;19.09;77.61;97071.66;4174975;28;5891;-69
2022/10/22 07:53:10;;;;;;;;;;;;;;;19.10;77.37;97075.13;4174819;28;5899;-68
2022/10/22 07:55:12;;;;;;;;;;;;;;;19.08;77.44;97067.34;4178438;28;5810;-68
2022/10/22 07:57:15;;;;;;;;;;;;;;;19.07;77.39;97068.41;4182266;28;5716;-68
2022/10/22 07:59:18;;;;;;;;;;;;;;;19.05;77.30;97078.56;4185623;28;5918;-69
2022/10/22 08:01:21;;;;;;;;;;;;;;;19.10;76.96;97078.63;4177179;28;5742;-69
2022/10/22 08:03:24;;;;;;;;;;;;;;;19.12;76.99;97084.56;4174345;28;6423;-69
2022/10/22 08:05:27;;;;;;;;;;;;;;;19.11;76.80;97093.66;4176793;28;5825;-69
2022/10/22 08:07:29;;;;;;;;;;;;;;;19.13;76.72;97090.72;4177101;28;5829;-69
2022/10/22 08:09:34;;;;;;;;;;;;;;;19.12;76.72;97092.59;4181109;28;5713;-69
2022/10/22 08:11:37;;;;;;;;;;;;;;;19.14;76.46;97095.88;4180628;28;5746;-69
2022/10/22 08:13:40;;;;;;;;;;;;;;;19.12;76.34;97089.09;4177944;28;5821;-69
2022/10/22 08:15:47;;;;;;;;;;;;;;;19.10;76.30;97094.72;4168870;28;5737;-69
2022/10/22 08:17:53;;;;;;;;;;;;;;;19.07;76.08;97092.50;4168714;28;5921;-69
2022/10/22 08:19:56;;;;;;;;;;;;;;;19.06;75.94;97104.28;4175487;28;5816;-69
2022/10/22 08:21:59;;;;;;;;;;;;;;;19.10;76.20;97107.28;4177675;28;5758;-69
2022/10/22 08:24:01;;;;;;;;;;;;;;;19.11;76.11;97099.00;4168970;28;5742;-70
2022/10/22 08:26:06;;;;;;;;;;;;;;;19.13;75.67;97107.63;4176247;28;5721;-68
2022/10/22 08:28:09;;;;;;;;;;;;;;;19.13;75.62;97110.28;4176953;28;5913;-69
2022/10/22 08:30:12;;;;;;;;;;;;;;;19.16;75.36;97101.81;4185067;28;5820;-68
2022/10/22 08:32:15;;;;;;;;;;;;;;;19.20;75.39;97102.94;4173382;28;7166;-69
2022/10/22 08:34:19;;;;;;;;;;;;;;;19.25;75.44;97102.19;4179106;28;5760;-69
2022/10/22 08:36:21;;;;;;;;;;;;;;;19.26;75.01;97100.38;4175491;28;5730;-69
2022/10/22 08:38:24;;;;;;;;;;;;;;;19.28;75.06;97100.94;4173360;28;5823;-69
2022/10/22 08:40:31;;;;;;;;;;;;;;;19.30;74.73;97113.03;4176264;28;5792;-69
2022/10/22 08:43:11;;;;;;;;;;;;;;;19.32;74.80;97104.75;4180783;28;5791;-69
2022/10/22 08:45:21;;;;;;;;;;;;;;;19.33;74.84;97106.38;4150004;28;5845;-69
2022/10/22 08:47:44;;;;;;;;;;;;;;;19.33;74.50;97114.41;4176935;28;5742;-69
2022/10/22 08:49:47;;;;;;;;;;;;;;;19.35;74.37;97118.47;4170751;28;5809;-70
2022/10/22 08:51:50;;;;;;;;;;;;;;;19.36;74.28;97121.97;4176424;28;6913;-70
2022/10/22 08:54:04;;;;;;;;;;;;;;;19.37;74.36;97126.31;4184108;28;5701;-70
2022/10/22 08:56:07;;;;;;;;;;;;;;;19.37;74.04;97115.56;4181365;28;5748;-69
2022/10/22 08:58:21;;;;;;;;;;;;;;;19.35;74.27;97114.97;4174358;28;5923;-70
2022/10/22 09:00:30;;;;;;;;;;;;;;;19.35;74.08;97114.97;4178188;28;5740;-69
2022/10/22 09:02:43;;;;;;;;;;;;;;;19.36;73.88;97120.09;4175618;28;6402;-69
2022/10/22 09:04:56;;;;;;;;;;;;;;;19.37;74.05;97118.25;4171013;28;5745;-69
2022/10/22 09:07:00;;;;;;;;;;;;;;;19.39;73.75;97116.16;4174544;28;5885;-69
2022/10/22 09:09:11;;;;;;;;;;;;;;;19.43;73.41;97114.59;4175545;28;5786;-69
2022/10/22 09:11:30;;;;;;;;;;;;;;;19.46;73.50;97106.06;4175789;28;6857;-70
2022/10/22 09:13:34;;;;;;;;;;;;;;;19.44;73.32;97111.66;4173752;28;5724;-70
2022/10/22 09:15:38;;;;;;;;;;;;;;;19.46;73.16;97111.44;4171936;28;5907;-70
2022/10/22 09:17:57;;;;;;;;;;;;;;;19.46;73.06;97106.06;4171411;28;5900;-69
2022/10/22 09:20:08;;;;;;;;;;;;;;;19.47;72.76;97107.69;4176645;28;5726;-70
2022/10/22 09:22:23;;;;;;;;;;;;;;;19.49;72.92;97110.97;4177308;28;5713;-71
2022/10/22 09:24:33;;;;;;;;;;;;;;;19.49;72.65;97116.31;4177765;28;5670;-70
2022/10/22 09:26:38;;;;;;;;;;;;;;;19.48;72.60;97112.03;4174985;28;5923;-70
2022/10/22 09:28:43;;;;;;;;;;;;;;;19.50;72.51;97117.94;4181398;28;5732;-71
2022/10/22 09:30:46;;;;;;;;;;;;;;;19.48;72.54;97115.50;4172793;28;5812;-70
2022/10/22 09:32:51;;;;;;;;;;;;;;;19.47;72.14;97116.53;4170472;28;5763;-70
2022/10/22 09:34:57;;;;;;;;;;;;;;;19.47;72.33;97121.09;4168153;28;5742;-71
2022/10/22 09:37:05;;;;;;;;;;;;;;;19.49;72.20;97121.69;4172781;28;5784;-69
2022/10/22 09:39:22;;;;;;;;;;;;;;;19.52;72.31;97128.44;4168210;28;5742;-69
2022/10/22 09:41:29;;;;;;;;;;;;;;;19.54;71.69;97115.59;4172579;28;5829;-70
2022/10/22 09:43:34;;;;;;;;;;;;;;;19.54;71.96;97121.75;4175684;28;5854;-70
2022/10/22 09:45:39;;;;;;;;;;;;;;;19.56;71.60;97117.00;4177938;28;5807;-70
2022/10/22 09:47:42;;;;;;;;;;;;;;;19.53;71.75;97114.78;4175387;28;6434;-70
2022/10/22 09:50:25;;;;;;;;;;;;;;;19.53;71.49;97114.78;4167755;28;5742;-70
2022/10/22 09:52:31;;;;;;;;;;;;;;;19.51;71.40;97108.84;4167542;28;5793;-70
2022/10/22 09:54:42;;;;;;;;;;;;;;;19.53;71.39;97114.78;4174286;28;5750;-70
2022/10/22 09:56:57;;;;;;;;;;;;;;;19.51;71.18;97111.53;4175600;28;5841;-71
2022/10/22 09:59:00;;;;;;;;;;;;;;;19.56;70.94;97116.19;4180617;28;5725;-71
2022/10/22 10:01:04;;;;;;;;;;;;;;;19.57;70.74;97113.25;4178828;28;5720;-71
2022/10/22 10:03:16;;;;;;;;;;;;;;;19.56;70.93;97111.63;4174998;28;5742;-71
2022/10/22 10:05:25;;;;;;;;;;;;;;;19.57;70.84;97118.63;4169136;28;5730;-72
2022/10/22 10:07:31;;;;;;;;;;;;;;;19.56;70.40;97117.00;4183717;28;5709;-70
2022/10/22 10:09:35;;;;;;;;;;;;;;;19.56;70.25;97126.91;4171203;28;5834;-71
2022/10/22 10:11:45;;;;;;;;;;;;;;;19.59;70.03;97119.19;4173646;28;5832;-70
2022/10/22 10:14:02;;;;;;;;;;;;;;;19.63;70.11;97128.41;4179209;28;5734;-70
2022/10/22 10:16:14;;;;;;;;;;;;;;;19.65;69.94;97126.28;4173437;28;5896;-70
2022/10/22 10:18:29;;;;;;;;;;;;;;;19.67;69.66;97121.47;4180221;28;5946;-70
2022/10/22 10:20:39;;;;;;;;;;;;;;;19.68;69.72;97119.59;4178541;28;5732;-70
2022/10/22 10:22:50;;;;;;;;;;;;;;;19.66;69.76;97119.84;4170536;28;5908;-70
2022/10/22 10:25:10;;;;;;;;;;;;;;;19.68;69.37;97127.66;4180599;28;5778;-70
2022/10/22 10:27:22;;;;;;;;;;;;;;;19.69;69.51;97122.03;4180351;28;5712;-69
2022/10/22 10:29:38;;;;;;;;;;;;;;;19.70;69.36;97122.84;4167951;28;5845;-69
2022/10/22 10:31:57;;;;;;;;;;;;;;;19.71;69.48;97117.28;4177595;28;5808;-70
2022/10/22 10:34:11;;;;;;;;;;;;;;;19.72;69.00;97110.03;4174706;28;5973;-69
2022/10/22 10:36:23;;;;;;;;;;;;;;;19.74;69.00;97115.97;4173556;28;5842;-69
2022/10/22 10:38:38;;;;;;;;;;;;;;;19.75;68.71;97115.72;4178087;28;5741;-70
2022/10/22 10:40:48;;;;;;;;;;;;;;;19.76;68.52;97106.63;4178087;28;5777;-70
2022/10/22 10:42:55;;;;;;;;;;;;;;;19.69;68.49;97100.59;4181639;28;5724;-71
2022/10/22 10:45:11;;;;;;;;;;;;;;;19.70;68.21;97104.88;4175528;28;5755;-71
2022/10/22 10:47:37;;;;;;;;;;;;;;;19.69;68.38;97107.81;4174896;28;5705;-70
2022/10/22 10:49:43;;;;;;;;;;;;;;;19.70;68.03;97099.53;4167910;28;5738;-70
2022/10/22 10:51:58;;;;;;;;;;;;;;;19.72;68.00;97100.13;4183653;28;5849;-70
2022/10/22 10:54:15;;;;;;;;;;;;;;;19.73;68.20;97101.75;4186606;28;5841;-70
2022/10/22 10:56:40;;;;;;;;;;;;;;;19.76;67.82;97106.63;4179974;28;5717;-70
2022/10/22 10:58:55;;;;;;;;;;;;;;;19.77;67.86;97107.44;4177929;28;5709;-69
2022/10/22 11:01:05;;;;;;;;;;;;;;;19.76;67.56;97097.75;4177704;28;5795;-70
2022/10/22 11:03:42;;;;;;;;;;;;;;;19.77;67.59;97091.31;4177806;28;5899;-70
2022/10/22 11:05:53;;;;;;;;;;;;;;;19.78;67.42;97099.13;4134648;28;7835;-70
2022/10/22 11:07:59;;;;;;;;;;;;;;;19.80;67.65;97090.84;4135028;28;5715;-70
2022/10/22 11:10:10;;;;;;;;;;;;;;;19.82;67.46;97098.63;4134870;28;5905;-70
2022/10/22 11:12:18;;;;;;;;;;;;;;;19.82;67.46;97098.63;4134961;28;5743;-70
2022/10/22 11:14:26;;;;;;;;;;;;;;;19.85;67.07;97095.47;4134847;28;5819;-70
2022/10/22 11:16:37;;;;;;;;;;;;;;;19.85;67.11;97077.50;4134629;28;5830;-70
2022/10/22 11:18:49;;;;;;;;;;;;;;;19.86;66.97;97089.88;4134524;28;5798;-70
2022/10/22 11:21:01;;;;;;;;;;;;;;;19.89;67.14;97086.69;4134339;28;5731;-70
2022/10/22 11:23:13;;;;;;;;;;;;;;;19.88;66.91;97081.56;4125509;28;5937;-69
2022/10/22 11:25:29;;;;;;;;;;;;;;;19.86;66.97;97075.66;4134685;28;6069;-70
2022/10/22 11:27:37;;;;;;;;;;;;;;;19.87;67.37;97077.25;4134595;28;5851;-68
2022/10/22 11:29:45;;;;;;;;;;;;;;;19.89;67.07;97077.84;4134013;28;5723;-69
2022/10/22 11:31:49;;;;;;;;;;;;;;;19.92;67.08;97069.28;4134453;28;5727;-69
2022/10/22 11:33:57;;;;;;;;;;;;;;;19.90;66.88;97071.41;4134277;28;5823;-69
2022/10/22 11:36:12;;;;;;;;;;;;;;;19.87;66.88;97066.53;4134478;28;5839;-69
2022/10/22 11:38:20;;;;;;;;;;;;;;;19.89;66.55;97059.03;4118152;28;5794;-69
2022/10/22 11:40:32;;;;;;;;;;;;;;;19.89;66.65;97061.72;4133342;28;5851;-69
2022/10/22 11:42:38;;;;;;;;;;;;;;;19.90;66.26;97058.00;4168850;28;5741;-69
2022/10/22 11:44:49;;;;;;;;;;;;;;;19.90;66.30;97056.13;4168935;28;5853;-70
2022/10/22 11:46:59;;;;;;;;;;;;;;;19.92;66.13;97067.41;4176323;28;5812;-70
2022/10/22 11:49:15;;;;;;;;;;;;;;;19.93;66.03;97060.16;4184937;28;5824;-70
2022/10/22 11:51:42;;;;;;;;;;;;;;;19.93;66.36;97068.22;4170777;28;5727;-70
2022/10/22 11:53:44;;;;;;;;;;;;;;;19.94;65.93;97062.63;4168456;28;5734;-70
2022/10/22 11:55:50;;;;;;;;;;;;;;;19.94;66.06;97059.13;4183034;28;5796;-70
2022/10/22 11:57:59;;;;;;;;;;;;;;;19.95;65.95;97060.75;4178528;28;5781;-70
2022/10/22 12:00:09;;;;;;;;;;;;;;;19.96;65.76;97057.03;4176860;28;5716;-70
2022/10/22 12:02:31;;;;;;;;;;;;;;;19.98;65.88;97060.25;4184006;28;5788;-70
2022/10/22 12:04:42;;;;;;;;;;;;;;;19.99;65.60;97056.53;4181009;28;5742;-70
2022/10/22 12:06:59;;;;;;;;;;;;;;;20.00;65.71;97052.78;4182542;28;5709;-70
2022/10/22 12:09:06;;;;;;;;;;;;;;;19.99;65.07;97048.47;4176721;28;5828;-69
2022/10/22 12:11:20;;;;;;;;;;;;;;;19.99;65.05;97043.09;4175282;28;5678;-69
2022/10/22 12:13:26;;;;;;;;;;;;;;;19.99;64.91;97046.59;4185156;28;5788;-69
2022/10/22 12:15:29;;;;;;;;;;;;;;;20.01;65.28;97041.78;4181697;28;5794;-69
2022/10/22 12:17:33;;;;;;;;;;;;;;;20.01;64.69;97035.63;4172545;28;7264;-69
2022/10/22 12:19:39;;;;;;;;;;;;;;;20.04;64.76;97035.09;4180038;28;5746;-69
2022/10/22 12:21:47;;;;;;;;;;;;;;;20.06;64.56;97036.50;4176699;28;5952;-70
2022/10/22 12:23:51;;;;;;;;;;;;;;;20.08;64.49;97038.13;4176504;28;5817;-70
2022/10/22 12:25:57;;;;;;;;;;;;;;;20.08;64.20;97033.56;4175616;28;5708;-71
2022/10/22 12:28:01;;;;;;;;;;;;;;;20.10;64.21;97034.13;4178665;28;5757;-71
2022/10/22 12:30:17;;;;;;;;;;;;;;;20.13;64.08;97030.13;4176776;28;5808;-69
2022/10/22 12:32:20;;;;;;;;;;;;;;;20.14;64.15;97021.84;4182634;28;5796;-69
2022/10/22 12:34:25;;;;;;;;;;;;;;;20.16;63.80;97022.41;4168083;28;5881;-69
2022/10/22 12:36:28;;;;;;;;;;;;;;;20.17;63.88;97018.69;4168131;28;5825;-70
2022/10/22 12:38:33;;;;;;;;;;;;;;;20.17;64.12;97010.63;4177819;28;5713;-70
2022/10/22 12:40:36;;;;;;;;;;;;;;;20.18;63.66;97012.25;4180270;28;5720;-68
2022/10/22 12:42:39;;;;;;;;;;;;;;;20.19;63.79;97019.22;4175172;28;5700;-69
2022/10/22 12:44:43;;;;;;;;;;;;;;;20.20;63.95;97015.47;4178827;28;5821;-69
2022/10/22 12:46:47;;;;;;;;;;;;;;;20.19;63.97;97013.88;4177427;28;5738;-69
2022/10/22 12:49:00;;;;;;;;;;;;;;;20.21;63.92;97010.94;4179953;28;6561;-69
2022/10/22 12:51:06;;;;;;;;;;;;;;;20.19;63.56;97018.41;4175409;28;5823;-69
2022/10/22 12:53:15;;;;;;;;;;;;;;;20.17;63.59;97002.56;4168554;28;5748;-69
2022/10/22 12:55:24;;;;;;;;;;;;;;;20.17;63.74;97012.50;4183637;28;5721;-68
2022/10/22 12:57:27;;;;;;;;;;;;;;;20.15;63.38;97012.72;4180674;28;5757;-69
2022/10/22 12:59:34;;;;;;;;;;;;;;;20.15;63.44;97007.34;4171227;28;5712;-69
2022/10/22 13:01:40;;;;;;;;;;;;;;;20.17;63.60;97010.63;4177855;28;5643;-68
2022/10/22 13:03:45;;;;;;;;;;;;;;;20.18;63.21;97004.19;4172891;28;5918;-69
2022/10/22 13:05:49;;;;;;;;;;;;;;;20.20;63.75;97003.94;4175690;28;5705;-68
2022/10/22 13:07:54;;;;;;;;;;;;;;;20.19;63.33;97000.44;4176080;28;5654;-68
2022/10/22 13:09:59;;;;;;;;;;;;;;;20.21;63.18;96998.31;4174930;28;5804;-70
2022/10/22 13:12:05;;;;;;;;;;;;;;;20.20;63.27;96999.38;4175392;28;5846;-69
2022/10/22 13:14:22;;;;;;;;;;;;;;;20.18;63.30;96990.78;4175494;28;5709;-69
2022/10/22 13:16:26;;;;;;;;;;;;;;;20.20;62.65;96993.19;4178492;28;5807;-69
2022/10/22 13:18:33;;;;;;;;;;;;;;;20.19;62.61;96995.06;4180315;28;5830;-69
2022/10/22 13:20:37;;;;;;;;;;;;;;;20.18;62.69;96990.78;4175090;28;5726;-69
2022/10/22 13:22:52;;;;;;;;;;;;;;;20.20;62.66;96993.19;4175526;28;5749;-69
2022/10/22 13:24:57;;;;;;;;;;;;;;;20.21;62.62;96995.63;4182240;28;5811;-69
2022/10/22 13:27:00;;;;;;;;;;;;;;;20.23;62.48;96993.50;4183655;28;5713;-68
2022/10/22 13:29:13;;;;;;;;;;;;;;;20.23;62.27;96988.13;4171169;28;5801;-69
2022/10/22 13:31:19;;;;;;;;;;;;;;;20.26;61.80;96987.63;4167088;28;5754;-69
2022/10/22 13:33:26;;;;;;;;;;;;;;;20.26;61.91;96989.50;4169200;28;6621;-69
2022/10/22 13:35:32;;;;;;;;;;;;;;;20.25;61.54;96985.19;4179991;28;5738;-69
2022/10/22 13:37:37;;;;;;;;;;;;;;;20.27;61.60;96983.06;4171194;28;5730;-69
2022/10/22 13:39:40;;;;;;;;;;;;;;;20.28;61.60;96995.47;4178207;28;5726;-69
2022/10/22 13:41:43;;;;;;;;;;;;;;;20.30;61.51;96985.28;4166563;28;5857;-68
2022/10/22 13:43:47;;;;;;;;;;;;;;;20.32;61.41;96989.31;4181011;28;5717;-69
2022/10/22 13:45:54;;;;;;;;;;;;;;;20.33;61.57;96987.44;4175193;28;5893;-69
2022/10/22 13:47:56;;;;;;;;;;;;;;;20.30;61.59;96980.72;4183269;28;5799;-68
2022/10/22 13:50:02;;;;;;;;;;;;;;;20.30;61.44;96979.91;4172457;28;5786;-69
2022/10/22 13:52:05;;;;;;;;;;;;;;;20.32;61.63;96986.66;4171668;28;5835;-69
2022/10/22 13:54:13;;;;;;;;;;;;;;;20.32;61.50;96981.28;4182736;28;6407;-69
2022/10/22 13:56:18;;;;;;;;;;;;;;;20.33;61.43;96987.44;4170577;28;5744;-69
2022/10/22 13:58:23;;;;;;;;;;;;;;;20.32;61.26;96992.00;4166447;28;5837;-69
2022/10/22 14:00:26;;;;;;;;;;;;;;;20.32;61.57;96986.66;4177016;28;5717;-69
2022/10/22 14:02:30;;;;;;;;;;;;;;;20.31;61.27;96979.66;4170693;28;5836;-69
2022/10/22 14:04:33;;;;;;;;;;;;;;;20.32;61.24;96975.91;4181645;28;5705;-69
2022/10/22 14:06:36;;;;;;;;;;;;;;;20.33;61.19;96982.09;4178924;28;5797;-69
2022/10/22 14:08:40;;;;;;;;;;;;;;;20.34;61.21;96978.34;4178140;28;5708;-69
2022/10/22 14:10:43;;;;;;;;;;;;;;;20.33;61.29;96965.97;4175966;28;5928;-69
2022/10/22 14:12:46;;;;;;;;;;;;;;;20.34;61.52;96964.91;4179960;28;6443;-69
2022/10/22 14:14:55;;;;;;;;;;;;;;;20.33;61.24;96964.09;4178110;28;5865;-69
2022/10/22 14:16:59;;;;;;;;;;;;;;;20.33;61.37;96961.41;4172199;28;5847;-68
2022/10/22 14:19:04;;;;;;;;;;;;;;;20.33;60.98;96952.56;4181813;28;6532;-68
2022/10/22 14:21:07;;;;;;;;;;;;;;;20.33;61.24;96948.00;4182011;28;5867;-68
2022/10/22 14:23:14;;;;;;;;;;;;;;;20.35;60.90;96953.09;4172907;28;5734;-68
2022/10/22 14:25:24;;;;;;;;;;;;;;;20.36;60.96;96952.03;4175580;28;5807;-69
2022/10/22 14:27:27;;;;;;;;;;;;;;;20.38;61.10;96951.78;4185655;28;5803;-69
2022/10/22 14:29:30;;;;;;;;;;;;;;;20.39;60.82;96950.75;4181632;28;5904;-69
2022/10/22 14:31:33;;;;;;;;;;;;;;;20.41;60.96;96952.13;4179096;28;5726;-69
2022/10/22 14:33:35;;;;;;;;;;;;;;;20.43;60.71;96952.69;4181935;28;5803;-69
2022/10/22 14:35:40;;;;;;;;;;;;;;;20.44;60.90;96945.44;4185428;28;6388;-69
2022/10/22 14:37:43;;;;;;;;;;;;;;;20.44;61.12;96948.13;4185909;28;5717;-70
2022/10/22 14:39:51;;;;;;;;;;;;;;;20.43;60.67;96944.66;4184791;28;5749;-69
2022/10/22 14:41:54;;;;;;;;;;;;;;;20.44;60.94;96950.81;4183055;28;5818;-69
2022/10/22 14:43:58;;;;;;;;;;;;;;;20.43;61.27;96952.69;4179371;28;5697;-69
2022/10/22 14:46:01;;;;;;;;;;;;;;;20.43;60.70;96944.66;4177384;28;5908;-69
2022/10/22 14:48:05;;;;;;;;;;;;;;;20.43;61.14;96941.16;4181269;28;5820;-69
2022/10/22 14:50:08;;;;;;;;;;;;;;;20.42;61.02;96940.34;4182890;28;5717;-69
2022/10/22 14:52:12;;;;;;;;;;;;;;;20.41;61.05;96935.19;4182815;28;5728;-69
2022/10/22 14:54:17;;;;;;;;;;;;;;;20.40;61.25;96933.56;4179670;28;5717;-69
2022/10/22 14:56:21;;;;;;;;;;;;;;;20.37;60.91;96932.19;4179412;28;5853;-69
2022/10/22 14:58:24;;;;;;;;;;;;;;;20.37;60.95;96940.22;4183330;28;5813;-69
2022/10/22 15:00:26;;;;;;;;;;;;;;;20.37;60.67;96940.22;4175734;28;5721;-69
2022/10/22 15:02:29;;;;;;;;;;;;;;;20.35;61.02;96931.63;4178566;28;5709;-69
2022/10/22 15:04:32;;;;;;;;;;;;;;;20.34;60.40;96936.19;4179607;28;5830;-69
2022/10/22 15:06:36;;;;;;;;;;;;;;;20.33;60.94;96929.19;4178836;28;5713;-69
2022/10/22 15:08:40;;;;;;;;;;;;;;;20.32;60.80;96938.31;4185170;28;5705;-69
2022/10/22 15:10:43;;;;;;;;;;;;;;;20.33;60.59;96925.69;4185191;28;5849;-69
2022/10/22 15:12:45;;;;;;;;;;;;;;;20.32;60.46;96924.09;4178370;28;5889;-69
2022/10/22 15:14:49;;;;;;;;;;;;;;;20.30;60.19;96923.53;4178793;28;5808;-69
2022/10/22 15:16:51;;;;;;;;;;;;;;;20.31;60.18;96938.56;4181666;28;5804;-69
2022/10/22 15:18:56;;;;;;;;;;;;;;;20.29;60.31;96932.66;4184394;28;5815;-69
2022/10/22 15:21:00;;;;;;;;;;;;;;;20.28;59.91;96925.66;4182252;28;5732;-69
2022/10/22 15:23:03;;;;;;;;;;;;;;;20.28;59.87;96931.03;4184791;28;5776;-69
2022/10/22 15:25:08;;;;;;;;;;;;;;;20.29;60.11;96932.66;4181716;28;5754;-69
2022/10/22 15:27:12;;;;;;;;;;;;;;;20.28;59.71;96921.09;4177536;28;5747;-69
2022/10/22 15:29:15;;;;;;;;;;;;;;;20.28;59.98;96925.66;4178374;28;5728;-69
2022/10/22 15:31:42;;;;;;;;;;;;;;;20.27;59.68;96930.22;4181210;28;5832;-69
2022/10/22 15:33:45;;;;;;;;;;;;;;;20.29;59.56;96929.97;4179975;28;5750;-69
2022/10/22 15:35:48;;;;;;;;;;;;;;;20.29;59.64;96921.91;4180794;28;5915;-70
2022/10/22 15:37:51;;;;;;;;;;;;;;;20.30;59.93;96928.91;4172101;28;5737;-69
2022/10/22 15:39:54;;;;;;;;;;;;;;;20.28;59.84;96934.53;4183081;28;5717;-69
2022/10/22 15:41:59;;;;;;;;;;;;;;;20.29;59.65;96932.66;4177491;28;5658;-70
2022/10/22 15:44:03;;;;;;;;;;;;;;;20.29;60.04;96936.16;4175845;28;5704;-69
2022/10/22 15:46:12;;;;;;;;;;;;;;;20.29;59.98;96936.16;4175024;28;5725;-70
2022/10/22 15:48:15;;;;;;;;;;;;;;;20.29;59.96;96929.97;4173421;28;5738;-70
2022/10/22 15:50:18;;;;;;;;;;;;;;;20.27;59.70;96927.53;4174260;28;5833;-70
2022/10/22 15:52:21;;;;;;;;;;;;;;;20.26;60.14;96928.56;4173777;28;6003;-69
2022/10/22 15:54:26;;;;;;;;;;;;;;;20.25;60.00;96932.31;4180491;28;5804;-68
2022/10/22 15:56:30;;;;;;;;;;;;;;;20.22;60.24;96927.47;4178952;28;5742;-68
2022/10/22 15:58:34;;;;;;;;;;;;;;;20.20;59.72;96929.59;4183880;28;5811;-68
2022/10/22 16:00:37;;;;;;;;;;;;;;;20.18;60.05;96915.63;4183630;28;5879;-68
2022/10/22 16:02:40;;;;;;;;;;;;;;;20.17;60.15;96923.91;4181268;28;5804;-68
2022/10/22 16:04:43;;;;;;;;;;;;;;;20.14;60.25;96914.47;4182923;28;5776;-68
2022/10/22 16:06:48;;;;;;;;;;;;;;;20.14;60.25;96916.34;4173977;28;7221;-68
2022/10/22 16:08:50;;;;;;;;;;;;;;;20.12;60.17;96911.22;4181966;28;6411;-68
2022/10/22 16:10:53;;;;;;;;;;;;;;;20.11;60.42;96906.13;4178359;28;5713;-69
2022/10/22 16:12:56;;;;;;;;;;;;;;;20.11;60.15;96909.63;4174495;28;5814;-68
2022/10/22 16:15:00;;;;;;;;;;;;;;;20.09;60.25;96909.06;4179842;28;5712;-68
2022/10/22 16:17:03;;;;;;;;;;;;;;;20.09;60.25;96911.75;4180640;28;5811;-69
2022/10/22 16:19:06;;;;;;;;;;;;;;;20.06;60.44;96907.69;4178532;28;5795;-69
2022/10/22 16:21:13;;;;;;;;;;;;;;;20.06;60.50;96913.06;4179674;28;5812;-69
2022/10/22 16:23:17;;;;;;;;;;;;;;;20.03;60.44;96910.03;4170915;28;5813;-69
2022/10/22 16:25:20;;;;;;;;;;;;;;;20.04;60.44;96912.47;4176374;28;5716;-68
2022/10/22 16:27:23;;;;;;;;;;;;;;;20.03;60.22;96907.38;4179075;28;5863;-69
2022/10/22 16:29:26;;;;;;;;;;;;;;;20.01;60.21;96915.66;4185066;28;5713;-69
2022/10/22 16:31:30;;;;;;;;;;;;;;;20.01;60.64;96925.59;4183029;28;5805;-69
2022/10/22 16:33:34;;;;;;;;;;;;;;;20.00;60.36;96918.59;4180707;28;5837;-69
2022/10/22 16:35:48;;;;;;;;;;;;;;;19.99;60.51;96916.97;4179809;28;5957;-69
2022/10/22 16:37:51;;;;;;;;;;;;;;;19.99;60.51;96916.97;4179990;28;5990;-69
2022/10/22 16:39:53;;;;;;;;;;;;;;;19.97;60.28;96916.44;4182979;28;7749;-69
2022/10/22 16:41:56;;;;;;;;;;;;;;;19.96;60.58;96917.50;4178452;28;5832;-70
2022/10/22 16:44:01;;;;;;;;;;;;;;;19.94;60.36;96922.31;4172930;28;5883;-70
2022/10/22 16:46:04;;;;;;;;;;;;;;;19.93;60.44;96923.34;4178670;28;5705;-69
2022/10/22 16:48:09;;;;;;;;;;;;;;;19.90;60.82;96919.28;4175215;28;5713;-69
2022/10/22 16:50:12;;;;;;;;;;;;;;;19.89;60.52;96922.22;4181139;28;5784;-69
2022/10/22 16:52:14;;;;;;;;;;;;;;;19.87;60.51;96924.34;4173624;28;5103;-69
2022/10/22 16:54:17;;;;;;;;;;;;;;;19.85;60.98;96923.78;4172078;28;5730;-69
2022/10/22 16:56:20;;;;;;;;;;;;;;;19.83;60.85;96917.88;4175696;28;5747;-69
2022/10/22 16:58:23;;;;;;;;;;;;;;;19.82;60.89;96930.47;4180167;28;6009;-69
2022/10/22 17:00:26;;;;;;;;;;;;;;;19.81;60.69;96936.88;4176053;28;5756;-69
2022/10/22 17:02:29;;;;;;;;;;;;;;;19.81;60.86;96941.41;4177496;28;5730;-69
2022/10/22 17:04:34;;;;;;;;;;;;;;;19.83;61.15;96955.41;4177869;28;5704;-69
2022/10/22 17:06:37;;;;;;;;;;;;;;;19.81;61.08;96957.53;4173248;28;5903;-69
2022/10/22 17:08:40;;;;;;;;;;;;;;;19.78;60.83;96954.28;4174930;28;5722;-69
2022/10/22 17:10:43;;;;;;;;;;;;;;;19.78;60.88;96948.09;4175369;28;5733;-69
2022/10/22 17:12:46;;;;;;;;;;;;;;;19.77;61.10;96941.13;4178501;28;6065;-69
2022/10/22 17:14:50;;;;;;;;;;;;;;;19.76;61.30;96951.03;4179859;28;5830;-69
2022/10/22 17:16:52;;;;;;;;;;;;;;;19.74;60.89;96953.16;4180936;28;5819;-70
2022/10/22 17:18:56;;;;;;;;;;;;;;;19.70;61.19;96952.00;4177254;28;5819;-69
2022/10/22 17:21:00;;;;;;;;;;;;;;;19.71;61.45;96953.66;4168425;28;5718;-69